createdAt,value
2023-02-23T00:00:30.131Z,9.10
2023-02-23T00:03:01.438Z,10.70
2023-02-23T00:08:15.208Z,10.40
2023-02-23T00:10:44.748Z,11.20
2023-02-23T00:13:13.710Z,11.40
2023-02-23T00:15:45.325Z,9.80
2023-02-23T00:18:14.849Z,12.80
2023-02-23T00:20:48.077Z,11.60
2023-02-23T00:23:16.576Z,11.80
2023-02-23T00:25:45.962Z,11.00
2023-02-23T00:28:15.227Z,12.20
2023-02-23T00:30:46.950Z,12.20
2023-02-23T00:33:15.878Z,11.40
2023-02-23T00:35:44.478Z,12.40
2023-02-23T00:38:12.600Z,11.70
2023-02-23T00:40:41.298Z,13.20
2023-02-23T00:43:09.491Z,13.70
2023-02-23T00:45:38.601Z,12.40
2023-02-23T00:48:10.967Z,12.40
2023-02-23T00:50:41.701Z,12.00
2023-02-23T00:53:11.571Z,12.80
2023-02-23T00:55:41.520Z,13.70
2023-02-23T00:58:14.215Z,13.90
2023-02-23T01:00:43.669Z,14.10
2023-02-23T01:03:11.878Z,12.50
2023-02-23T01:05:40.043Z,13.90
2023-02-23T01:08:10.371Z,13.50
2023-02-23T01:10:44.612Z,13.90
2023-02-23T01:13:13.360Z,13.00
2023-02-23T01:15:43.514Z,12.90
2023-02-23T01:18:17.622Z,13.80
2023-02-23T01:20:45.970Z,13.60
2023-02-23T01:23:14.591Z,14.00
2023-02-23T01:25:44.087Z,12.70
2023-02-23T01:28:12.472Z,13.30
2023-02-23T01:30:40.814Z,13.50
2023-02-23T01:33:09.559Z,13.50
2023-02-23T01:35:38.516Z,13.50
2023-02-23T01:38:07.103Z,12.00
2023-02-23T01:40:37.584Z,14.10
2023-02-23T01:43:21.172Z,13.00
2023-02-23T01:45:49.326Z,12.80
2023-02-23T01:51:13.706Z,14.20
2023-02-23T01:54:07.481Z,13.00
2023-02-23T01:56:44.661Z,12.90
2023-02-23T01:59:13.305Z,13.70
2023-02-23T02:01:42.255Z,12.90
2023-02-23T02:04:16.953Z,14.30
2023-02-23T02:06:46.033Z,12.80
2023-02-23T02:09:17.691Z,13.70
2023-02-23T02:11:54.179Z,12.10
2023-02-23T02:14:31.035Z,13.10
2023-02-23T02:17:21.026Z,12.80
2023-02-23T02:20:01.407Z,12.50
2023-02-23T02:22:54.292Z,14.70
2023-02-23T02:25:25.245Z,12.80
2023-02-23T02:28:09.089Z,12.70
2023-02-23T02:31:02.466Z,13.80
2023-02-23T02:33:53.322Z,13.80
2023-02-23T02:36:58.994Z,12.20
2023-02-23T02:40:15.854Z,11.70
2023-02-23T02:43:11.467Z,11.80
2023-02-23T02:46:08.972Z,14.20
2023-02-23T02:48:57.901Z,12.20
2023-02-23T02:51:28.812Z,13.10
2023-02-23T02:54:15.800Z,13.60
2023-02-23T02:56:44.648Z,12.70
2023-02-23T02:59:33.082Z,11.80
2023-02-23T03:02:21.362Z,12.90
2023-02-23T03:05:08.022Z,13.30
2023-02-23T03:07:59.801Z,13.20
2023-02-23T03:10:51.468Z,12.30
2023-02-23T03:13:49.702Z,14.70
2023-02-23T03:16:36.488Z,13.70
2023-02-23T03:19:52.880Z,12.20
2023-02-23T03:23:03.435Z,13.80
2023-02-23T03:26:17.407Z,13.20
2023-02-23T03:29:09.550Z,13.70
2023-02-23T03:32:30.471Z,14.20
2023-02-23T03:35:25.172Z,12.10
2023-02-23T03:38:20.116Z,13.00
2023-02-23T03:41:06.896Z,13.30
2023-02-23T03:43:57.522Z,13.80
2023-02-23T03:46:44.452Z,14.10
2023-02-23T03:49:31.329Z,12.30
2023-02-23T03:52:22.604Z,13.90
2023-02-23T03:55:21.831Z,13.60
2023-02-23T03:58:10.812Z,12.60
2023-02-23T04:01:01.760Z,11.70
2023-02-23T04:03:50.211Z,13.20
2023-02-23T04:06:37.293Z,13.20
2023-02-23T04:09:25.130Z,11.20
2023-02-23T04:12:31.658Z,13.20
2023-02-23T04:15:20.718Z,13.50
2023-02-23T04:17:50.805Z,12.90
2023-02-23T04:20:19.775Z,12.20
2023-02-23T04:22:47.991Z,14.50
2023-02-23T04:25:17.463Z,14.10
2023-02-23T04:27:45.621Z,13.90
2023-02-23T04:30:13.905Z,15.10
2023-02-23T04:32:44.716Z,12.50
2023-02-23T04:35:13.689Z,13.40
2023-02-23T04:37:41.773Z,12.60
2023-02-23T04:40:10.722Z,13.40
2023-02-23T04:42:39.628Z,15.10
2023-02-23T04:45:08.647Z,12.50
2023-02-23T04:47:36.950Z,13.20
2023-02-23T04:50:05.867Z,11.80
2023-02-23T04:52:35.238Z,12.90
2023-02-23T04:55:05.544Z,13.20
2023-02-23T04:57:34.715Z,13.80
2023-02-23T05:00:05.344Z,14.10
2023-02-23T05:02:34.058Z,14.30
2023-02-23T05:05:03.656Z,12.50
2023-02-23T05:07:32.107Z,13.40
2023-02-23T05:10:00.231Z,14.40
2023-02-23T05:12:30.911Z,14.50
2023-02-23T05:14:59.402Z,14.90
2023-02-23T05:17:27.632Z,13.20
2023-02-23T05:19:56.793Z,13.10
2023-02-23T05:22:25.182Z,13.80
2023-02-23T05:24:55.301Z,16.40
2023-02-23T05:29:53.465Z,14.70
2023-02-23T05:32:22.153Z,14.70
2023-02-23T05:34:50.685Z,14.50
2023-02-23T05:37:20.090Z,14.80
2023-02-23T05:39:48.224Z,15.20
2023-02-23T05:42:20.378Z,13.60
2023-02-23T05:44:48.727Z,13.80
2023-02-23T05:47:17.086Z,14.90
2023-02-23T05:49:46.428Z,15.50
2023-02-23T05:52:14.628Z,15.90
2023-02-23T05:54:43.517Z,14.10
2023-02-23T05:57:11.769Z,14.80
2023-02-23T05:59:40.490Z,14.90
2023-02-23T06:02:08.987Z,13.70
2023-02-23T06:04:37.431Z,14.60
2023-02-23T06:07:05.708Z,13.80
2023-02-23T06:09:34.249Z,14.30
2023-02-23T06:12:02.625Z,15.80
2023-02-23T06:14:31.043Z,13.80
2023-02-23T06:17:00.491Z,13.20
2023-02-23T06:19:29.484Z,14.90
2023-02-23T06:21:59.875Z,14.40
2023-02-23T06:24:28.485Z,14.70
2023-02-23T06:26:57.101Z,14.90
2023-02-23T06:29:25.440Z,14.00
2023-02-23T06:31:53.676Z,14.90
2023-02-23T06:34:21.939Z,14.00
2023-02-23T06:36:50.462Z,18.10
2023-02-23T06:39:21.566Z,14.70
2023-02-23T06:41:49.708Z,15.40
2023-02-23T06:44:18.123Z,15.90
2023-02-23T06:46:46.496Z,15.50
2023-02-23T06:49:16.555Z,15.10
2023-02-23T06:51:46.507Z,13.40
2023-02-23T06:54:16.274Z,13.60
2023-02-23T06:56:46.712Z,16.80
2023-02-23T06:59:15.704Z,15.90
2023-02-23T07:01:47.420Z,14.50
2023-02-23T07:04:16.862Z,16.60
2023-02-23T07:06:45.757Z,14.70
2023-02-23T07:09:15.655Z,13.90
2023-02-23T07:11:44.982Z,12.80
2023-02-23T07:14:21.517Z,14.70
2023-02-23T07:16:53.473Z,14.40
2023-02-23T07:21:54.795Z,15.30
2023-02-23T07:26:52.730Z,17.10
2023-02-23T07:29:21.638Z,13.30
2023-02-23T07:31:50.522Z,14.60
2023-02-23T07:34:18.983Z,14.30
2023-02-23T07:36:47.358Z,13.50
2023-02-23T07:39:16.055Z,14.40
2023-02-23T07:41:44.491Z,15.40
2023-02-23T07:44:22.245Z,12.50
2023-02-23T07:46:53.059Z,12.70
2023-02-23T07:49:21.340Z,12.00
2023-02-23T07:51:49.688Z,12.90
2023-02-23T07:54:19.885Z,12.80
2023-02-23T07:56:52.689Z,12.30
2023-02-23T07:59:21.821Z,12.10
2023-02-23T08:01:51.152Z,12.20
2023-02-23T08:04:19.749Z,12.70
2023-02-23T08:06:48.304Z,11.60
2023-02-23T08:09:16.534Z,11.60
2023-02-23T08:11:45.402Z,10.80
2023-02-23T08:14:14.642Z,11.80
2023-02-23T08:16:43.050Z,12.60
2023-02-23T08:19:12.649Z,10.40
2023-02-23T08:21:43.471Z,12.10
2023-02-23T08:24:12.043Z,11.40
2023-02-23T08:26:42.054Z,11.00
2023-02-23T08:29:10.670Z,12.70
2023-02-23T08:31:41.176Z,11.30
2023-02-23T08:34:10.406Z,11.00
2023-02-23T08:36:43.643Z,12.00
2023-02-23T08:39:13.951Z,9.40
2023-02-23T08:41:43.411Z,11.90
2023-02-23T08:44:11.728Z,11.70
2023-02-23T08:46:41.546Z,10.90
2023-02-23T08:49:11.712Z,9.70
2023-02-23T08:54:14.436Z,12.00
2023-02-23T08:56:43.232Z,10.90
2023-02-23T08:59:12.717Z,12.30
2023-02-23T09:01:42.541Z,11.90
2023-02-23T09:04:11.664Z,12.00
2023-02-23T09:06:41.114Z,12.70
2023-02-23T09:09:09.428Z,13.40
2023-02-23T09:11:37.784Z,11.80
2023-02-23T09:14:07.194Z,11.50
2023-02-23T09:16:36.271Z,12.60
2023-02-23T09:19:05.467Z,11.30
2023-02-23T09:21:34.692Z,12.20
2023-02-23T09:24:03.073Z,11.90
2023-02-23T09:26:32.629Z,10.80
2023-02-23T09:29:01.050Z,12.90
2023-02-23T09:31:30.981Z,10.80
2023-02-23T09:34:02.567Z,12.10
2023-02-23T09:36:34.803Z,12.30
2023-02-23T09:39:03.434Z,11.90
2023-02-23T09:41:50.219Z,12.20
2023-02-23T09:44:56.349Z,12.10
2023-02-23T09:47:31.081Z,10.70
2023-02-23T09:50:00.368Z,11.40
2023-02-23T09:52:42.490Z,11.70
2023-02-23T09:55:12.302Z,11.60
2023-02-23T09:57:43.246Z,12.40
2023-02-23T10:00:20.753Z,14.60
2023-02-23T10:02:57.790Z,14.20
2023-02-23T10:05:28.448Z,14.80
2023-02-23T10:08:00.958Z,13.40
2023-02-23T10:10:35.613Z,11.70
2023-02-23T10:13:14.511Z,9.90
2023-02-23T10:16:04.155Z,10.80
2023-02-23T10:18:54.175Z,9.90
2023-02-23T10:21:30.438Z,10.50
2023-02-23T10:24:06.856Z,10.30
2023-02-23T10:26:47.367Z,10.10
2023-02-23T10:29:43.290Z,8.60
2023-02-23T10:32:40.939Z,8.10
2023-02-23T10:35:13.761Z,9.20
2023-02-23T10:37:41.977Z,9.90
2023-02-23T10:40:18.054Z,8.90
2023-02-23T10:42:50.120Z,8.50
2023-02-23T10:45:23.385Z,8.80
2023-02-23T10:47:58.893Z,7.30
2023-02-23T10:50:32.806Z,8.70
2023-02-23T10:53:24.487Z,8.20
2023-02-23T10:56:11.038Z,9.50
2023-02-23T10:58:51.521Z,8.20
2023-02-23T11:02:01.993Z,8.50
2023-02-23T11:04:53.241Z,8.20
2023-02-23T11:07:29.778Z,8.00
2023-02-23T11:10:27.586Z,9.10
2023-02-23T11:12:56.989Z,8.60
2023-02-23T11:15:35.329Z,9.60
2023-02-23T11:18:08.021Z,9.70
2023-02-23T11:20:39.922Z,10.00
2023-02-23T11:23:14.738Z,10.10
2023-02-23T11:25:45.258Z,9.30
2023-02-23T11:28:21.747Z,10.50
2023-02-23T11:30:51.711Z,8.90
2023-02-23T11:33:25.643Z,8.20
2023-02-23T11:36:00.759Z,10.10
2023-02-23T11:38:30.610Z,7.80
2023-02-23T11:41:07.501Z,8.60
2023-02-23T11:43:37.665Z,7.50
2023-02-23T11:46:06.318Z,8.60
2023-02-23T11:48:36.454Z,7.40
2023-02-23T11:51:05.602Z,9.20
2023-02-23T11:53:40.526Z,9.00
2023-02-23T11:56:12.763Z,8.90
2023-02-23T11:58:46.896Z,7.60
2023-02-23T12:01:17.277Z,7.80
2023-02-23T12:06:36.348Z,6.50
2023-02-23T12:09:18.650Z,5.80
2023-02-23T12:11:50.644Z,6.30
2023-02-23T12:14:49.954Z,6.70
2023-02-23T12:17:29.618Z,7.20
2023-02-23T12:20:04.695Z,5.90
2023-02-23T12:22:35.889Z,7.60
2023-02-23T12:25:18.408Z,6.30
2023-02-23T12:28:19.671Z,6.40
2023-02-23T12:30:59.177Z,7.00
2023-02-23T12:33:44.540Z,6.00
2023-02-23T12:36:38.577Z,8.60
2023-02-23T12:39:36.879Z,6.30
2023-02-23T12:42:11.448Z,6.00
2023-02-23T12:44:52.807Z,6.10
2023-02-23T12:47:28.283Z,6.40
2023-02-23T12:50:13.564Z,6.70
2023-02-23T12:52:54.567Z,7.10
2023-02-23T12:55:30.731Z,7.20
2023-02-23T12:58:02.678Z,6.50
2023-02-23T13:00:40.549Z,6.50
2023-02-23T13:03:30.415Z,6.80
2023-02-23T13:06:17.653Z,8.60
2023-02-23T13:08:53.779Z,8.60
2023-02-23T13:11:44.044Z,8.70
2023-02-23T13:14:25.911Z,9.00
2023-02-23T13:17:14.142Z,8.60
2023-02-23T13:19:53.794Z,8.00
2023-02-23T13:22:41.030Z,7.60
2023-02-23T13:25:37.077Z,10.60
2023-02-23T13:28:05.370Z,9.30
2023-02-23T13:30:38.151Z,8.70
2023-02-23T13:33:16.070Z,9.40
2023-02-23T13:35:44.369Z,9.50
2023-02-23T13:38:36.837Z,9.40
2023-02-23T13:41:43.775Z,9.20
2023-02-23T13:44:22.744Z,8.90
2023-02-23T13:47:21.222Z,8.50
2023-02-23T13:49:59.795Z,9.30
2023-02-23T13:52:39.924Z,9.40
2023-02-23T13:55:26.750Z,9.30
2023-02-23T13:57:59.910Z,9.30
2023-02-23T14:00:28.850Z,9.70
2023-02-23T14:02:57.227Z,9.40
2023-02-23T14:05:27.797Z,10.10
2023-02-23T14:08:05.431Z,11.40
2023-02-23T14:10:40.329Z,9.70
2023-02-23T14:13:14.939Z,10.60
2023-02-23T14:16:07.734Z,10.10
2023-02-23T14:18:36.654Z,11.10
2023-02-23T14:21:37.390Z,11.20
2023-02-23T14:24:14.833Z,11.10
2023-02-23T14:27:08.510Z,9.50
2023-02-23T14:30:02.311Z,9.70
2023-02-23T14:32:31.281Z,8.30
2023-02-23T14:35:01.312Z,9.50
2023-02-23T14:37:35.846Z,10.00
2023-02-23T14:40:12.897Z,9.90
2023-02-23T14:42:41.371Z,10.00
2023-02-23T14:45:37.716Z,9.20
2023-02-23T14:48:08.487Z,9.60
2023-02-23T14:50:39.343Z,10.40
2023-02-23T14:53:14.936Z,10.80
2023-02-23T14:55:43.598Z,10.10
2023-02-23T14:58:25.057Z,10.40
2023-02-23T15:00:53.974Z,11.60
2023-02-23T15:03:24.042Z,11.50
2023-02-23T15:05:57.072Z,12.60
2023-02-23T15:08:27.557Z,13.10
2023-02-23T15:11:12.234Z,13.80
2023-02-23T15:13:50.428Z,13.80
2023-02-23T15:16:24.621Z,12.90
2023-02-23T15:18:53.481Z,12.90
2023-02-23T15:21:22.977Z,13.70
2023-02-23T15:24:12.970Z,13.90
2023-02-23T15:26:43.958Z,14.20
2023-02-23T15:29:15.102Z,13.00
2023-02-23T15:31:52.917Z,13.20
2023-02-23T15:34:24.984Z,13.30
2023-02-23T15:36:59.916Z,13.60
2023-02-23T15:39:54.879Z,14.00
2023-02-23T15:42:26.281Z,13.50
2023-02-23T15:47:35.529Z,14.00
2023-02-23T15:50:16.510Z,15.30
2023-02-23T15:52:50.331Z,14.40
2023-02-23T15:55:25.350Z,14.70
2023-02-23T15:58:00.341Z,12.60
2023-02-23T16:00:38.164Z,12.30
2023-02-23T16:03:07.784Z,12.90
2023-02-23T16:05:46.589Z,13.80
2023-02-23T16:08:23.179Z,13.90
2023-02-23T16:11:01.164Z,12.50
2023-02-23T16:13:29.416Z,11.90
2023-02-23T16:15:57.585Z,11.80
2023-02-23T16:18:41.602Z,11.20
2023-02-23T16:21:17.352Z,11.00
2023-02-23T16:23:48.069Z,12.10
2023-02-23T16:26:19.555Z,12.00
2023-02-23T16:28:48.023Z,11.70
2023-02-23T16:31:22.725Z,11.60
2023-02-23T16:33:57.263Z,11.10
2023-02-23T16:36:40.425Z,11.00
2023-02-23T16:39:12.206Z,11.30
2023-02-23T16:41:40.933Z,14.40
2023-02-23T16:44:12.810Z,13.40
2023-02-23T16:47:02.641Z,15.80
2023-02-23T16:49:34.450Z,15.20
2023-02-23T16:52:05.030Z,14.10
2023-02-23T16:54:33.443Z,13.70
2023-02-23T16:57:11.237Z,11.60
2023-02-23T16:59:39.478Z,12.60
2023-02-23T17:02:13.955Z,12.70
2023-02-23T17:04:48.832Z,13.40
2023-02-23T17:07:19.638Z,12.90
2023-02-23T17:09:48.915Z,12.80
2023-02-23T17:12:21.869Z,13.10
2023-02-23T17:14:52.332Z,12.00
2023-02-23T17:17:21.861Z,15.80
2023-02-23T17:19:50.100Z,14.70
2023-02-23T17:22:22.854Z,14.50
2023-02-23T17:24:51.106Z,13.90
2023-02-23T17:27:19.494Z,14.00
2023-02-23T17:29:48.367Z,14.20
2023-02-23T17:32:17.465Z,15.90
2023-02-23T17:34:45.648Z,16.70
2023-02-23T17:37:14.655Z,14.70
2023-02-23T17:39:42.883Z,13.80
2023-02-23T17:42:11.713Z,16.50
2023-02-23T17:44:40.568Z,15.70
2023-02-23T17:47:09.147Z,14.40
2023-02-23T17:49:37.503Z,14.10
2023-02-23T17:52:05.958Z,14.10
2023-02-23T17:54:34.264Z,14.20
2023-02-23T17:57:03.521Z,16.00
2023-02-23T17:59:32.052Z,14.30
2023-02-23T18:02:00.825Z,13.50
2023-02-23T18:04:29.536Z,15.00
2023-02-23T18:06:58.075Z,15.10
2023-02-23T18:09:27.415Z,14.30
2023-02-23T18:11:58.116Z,13.20
2023-02-23T18:14:26.300Z,13.90
2023-02-23T18:16:54.918Z,14.60
2023-02-23T18:19:24.659Z,13.50
2023-02-23T18:21:56.224Z,13.70
2023-02-23T18:24:24.995Z,13.90
2023-02-23T18:26:54.823Z,15.60
2023-02-23T18:29:22.932Z,15.20
2023-02-23T18:31:52.591Z,13.80
2023-02-23T18:34:21.929Z,14.20
2023-02-23T18:36:52.457Z,13.70
2023-02-23T18:39:20.769Z,14.40
2023-02-23T18:41:50.494Z,13.40
2023-02-23T18:44:19.285Z,12.30
2023-02-23T18:46:47.669Z,13.50
2023-02-23T18:49:17.421Z,11.60
2023-02-23T18:51:49.034Z,12.60
2023-02-23T18:54:18.783Z,14.40
2023-02-23T18:56:47.618Z,12.10
2023-02-23T18:59:16.013Z,12.70
2023-02-23T19:01:46.772Z,13.00
2023-02-23T19:04:15.217Z,14.40
2023-02-23T19:06:46.086Z,11.80
2023-02-23T19:09:14.700Z,11.30
2023-02-23T19:11:44.632Z,11.90
2023-02-23T19:14:16.298Z,13.00
2023-02-23T19:16:46.945Z,14.00
2023-02-23T19:19:16.059Z,14.00
2023-02-23T19:21:45.529Z,11.20
2023-02-23T19:24:14.640Z,12.60
2023-02-23T19:26:42.889Z,13.00
2023-02-23T19:29:11.001Z,14.00
2023-02-23T19:31:39.692Z,13.60
2023-02-23T19:34:10.007Z,13.80
2023-02-23T19:36:38.382Z,13.20
2023-02-23T19:39:11.158Z,12.20
2023-02-23T19:41:40.856Z,12.60
2023-02-23T19:44:10.600Z,12.80
2023-02-23T19:46:40.171Z,13.00
2023-02-23T19:49:08.826Z,13.10
2023-02-23T19:51:37.382Z,11.60
2023-02-23T19:54:06.787Z,12.50
2023-02-23T19:56:37.100Z,12.40
2023-02-23T19:59:05.830Z,13.50
2023-02-23T20:01:37.519Z,11.80
2023-02-23T20:04:08.445Z,12.40
2023-02-23T20:06:47.406Z,12.40
2023-02-23T20:09:15.780Z,12.60
2023-02-23T20:11:49.558Z,11.30
2023-02-23T20:14:18.646Z,12.50
2023-02-23T20:16:47.229Z,10.50
2023-02-23T20:19:17.654Z,10.90
2023-02-23T20:21:46.156Z,10.70
2023-02-23T20:24:16.394Z,10.50
2023-02-23T20:26:44.772Z,10.80
2023-02-23T20:29:18.757Z,12.50
2023-02-23T20:31:52.072Z,11.20
2023-02-23T20:34:24.157Z,10.00
2023-02-23T20:36:53.887Z,10.10
2023-02-23T20:39:23.095Z,10.80
2023-02-23T20:41:54.741Z,11.20
2023-02-23T20:44:24.287Z,12.10
2023-02-23T20:46:53.080Z,11.10
2023-02-23T20:49:22.942Z,12.90
2023-02-23T20:51:51.176Z,10.80
2023-02-23T20:54:19.646Z,11.40
2023-02-23T20:57:07.447Z,11.90
2023-02-23T20:59:36.627Z,16.20
2023-02-23T21:02:05.680Z,13.50
2023-02-23T21:04:38.646Z,13.40
2023-02-23T21:07:07.144Z,14.10
2023-02-23T21:09:40.836Z,13.40
2023-02-23T21:12:12.808Z,14.20
2023-02-23T21:14:50.117Z,14.30
2023-02-23T21:17:18.773Z,14.50
2023-02-23T21:19:46.895Z,14.10
2023-02-23T21:22:16.628Z,14.30
2023-02-23T21:24:44.785Z,15.60
2023-02-23T21:27:13.179Z,13.50
2023-02-23T21:29:42.105Z,14.70
2023-02-23T21:32:13.994Z,12.60
2023-02-23T21:37:13.935Z,14.70
2023-02-23T21:39:42.481Z,13.60
2023-02-23T21:42:10.827Z,14.40
2023-02-23T21:44:39.546Z,14.00
2023-02-23T21:47:07.876Z,13.70
2023-02-23T21:49:38.668Z,14.00
2023-02-23T21:52:08.712Z,14.30
2023-02-23T21:54:39.576Z,14.60
2023-02-23T21:57:07.895Z,14.40
2023-02-23T21:59:36.270Z,13.60
2023-02-23T22:02:04.452Z,13.20
2023-02-23T22:04:35.768Z,14.00
2023-02-23T22:07:04.979Z,14.50
2023-02-23T22:09:35.158Z,14.00
2023-02-23T22:12:04.721Z,14.30
2023-02-23T22:14:35.180Z,13.40
2023-02-23T22:17:06.892Z,13.10
2023-02-23T22:19:37.509Z,12.40
2023-02-23T22:22:08.809Z,14.10
2023-02-23T22:24:39.297Z,13.90
2023-02-23T22:27:10.534Z,13.10
2023-02-23T22:29:39.216Z,14.20
2023-02-23T22:32:08.238Z,12.00
2023-02-23T22:34:38.047Z,12.50
2023-02-23T22:37:10.208Z,11.60
2023-02-23T22:39:41.955Z,11.90
2023-02-23T22:42:13.293Z,12.50
2023-02-23T22:44:44.794Z,13.10
2023-02-23T22:47:14.519Z,13.50
2023-02-23T22:49:44.042Z,11.80
2023-02-23T22:52:12.974Z,11.50
2023-02-23T22:54:45.850Z,13.10
2023-02-23T22:59:55.051Z,12.80
2023-02-23T23:02:32.799Z,14.30
2023-02-23T23:05:02.001Z,12.90
2023-02-23T23:07:32.335Z,12.30
2023-02-23T23:10:05.890Z,12.10
2023-02-23T23:12:34.558Z,11.70
2023-02-23T23:15:15.052Z,12.30
2023-02-23T23:17:51.578Z,12.80
2023-02-23T23:20:23.364Z,12.60
2023-02-23T23:22:57.303Z,12.80
2023-02-23T23:25:29.783Z,12.20
2023-02-23T23:27:58.626Z,11.50
2023-02-23T23:30:29.448Z,12.00
2023-02-23T23:35:26.702Z,12.00
2023-02-23T23:37:55.368Z,13.90
2023-02-23T23:40:24.760Z,11.60
2023-02-23T23:42:55.537Z,12.30
2023-02-23T23:45:24.493Z,11.60
2023-02-23T23:47:52.770Z,12.70
2023-02-23T23:50:27.449Z,12.20
2023-02-23T23:52:57.245Z,13.70
2023-02-23T23:55:31.207Z,13.20
2023-02-23T23:58:00.462Z,11.50
